Weather at Guanare Airport

Public forecast

Using degrees Celsius for public forecast. Weather courtesy of forecast.io.

Current aviation weather report (METAR) for Guanare Airport

Retrieved 2020/10/24 14:02 UTC (31 minutes ago):

SVGU 241402Z AUTO 08002KT NCD 27/23 Q1016

Closest aviation forecast (TAF) to Guanare Airport

Forecast is more than 12 hours old.

Closest forecast is Barquisimeto International Airport, 65.4 nm (121.0 km) NNE. Retrieved 2020/10/19 12:06 UTC (5 days ago):

TAF TAF SVBM 191057Z 1912/2012 10007KT 9999 BR FEW013 SCT070 TX33/1918Z TN22/2008Z BECMG 1914/1918 09010KT 7000 VCTSDZ FEW013CB BKN070